Time;durP1;ratioP1;P1;durP2;ratioP2;P2;SDS_P1;SDS_P2;PMS_P1;PMS_P2;Temp;Humidity;BMP_temperature;BMP_pressure;BME280_temperature;BME280_humidity;BME280_pressure;Samples;Min_cycle;Max_cycle;Signal;HPM_P1;HPM_P2
2023/08/26 00:01:36;;;;;;;1.47;1.30;;;;;;;27.20;68.82;99303.47;5111996;28;20206;-77
2023/08/26 00:04:03;;;;;;;1.93;1.60;;;;;;;27.19;69.04;99303.59;5111376;28;20684;-77
2023/08/26 00:06:29;;;;;;;1.40;1.30;;;;;;;27.13;68.34;99307.69;5116539;27;20683;-77
2023/08/26 00:08:56;;;;;;;1.50;1.50;;;;;;;27.11;68.75;99304.34;5120123;27;20202;-77
2023/08/26 00:11:23;;;;;;;1.20;1.20;;;;;;;27.04;68.78;99304.16;5111410;28;20195;-77
2023/08/26 00:13:50;;;;;;;1.50;1.40;;;;;;;27.05;68.99;99305.81;5111836;28;20558;-77
2023/08/26 00:16:18;;;;;;;2.57;1.40;;;;;;;27.07;69.50;99308.31;5111408;28;20289;-77
2023/08/26 00:18:45;;;;;;;2.43;1.43;;;;;;;27.04;68.47;99298.88;5111507;28;20223;-77
2023/08/26 00:21:12;;;;;;;1.27;1.17;;;;;;;26.96;68.59;99295.38;5110925;28;20199;-77
2023/08/26 00:23:39;;;;;;;1.50;1.40;;;;;;;26.94;68.55;99297.34;5111552;28;20202;-77
2023/08/26 00:26:06;;;;;;;1.50;1.40;;;;;;;26.78;69.37;99287.47;5111352;28;20191;-77
2023/08/26 00:28:32;;;;;;;1.17;1.17;;;;;;;26.67;69.67;99284.25;5111237;28;20198;-77
2023/08/26 00:31:01;;;;;;;1.40;1.30;;;;;;;26.61;70.06;99286.50;5111137;28;20202;-77
2023/08/26 00:33:29;;;;;;;1.47;1.37;;;;;;;26.47;71.50;99294.06;5111453;28;20194;-77
2023/08/26 00:35:56;;;;;;;1.50;1.43;;;;;;;26.48;71.41;99301.00;5111434;28;20290;-76
2023/08/26 00:38:23;;;;;;;1.47;1.37;;;;;;;26.51;70.73;99298.06;5111179;28;20309;-77
2023/08/26 00:40:50;;;;;;;1.40;1.30;;;;;;;26.52;70.75;99299.72;5111586;28;20550;-76
2023/08/26 00:43:17;;;;;;;1.70;1.60;;;;;;;26.53;70.81;99298.75;5111446;28;20243;-76
2023/08/26 00:45:44;;;;;;;1.43;1.33;;;;;;;26.55;71.17;99297.63;5111394;28;20194;-77
2023/08/26 00:48:14;;;;;;;1.07;1.07;;;;;;;26.57;71.03;99295.66;5111001;28;20252;-77
2023/08/26 00:50:44;;;;;;;2.53;1.40;;;;;;;26.55;70.35;99291.53;5111018;27;20738;-77
2023/08/26 00:53:12;;;;;;;1.03;1.03;;;;;;;26.54;70.79;99285.44;5111237;28;20187;-77
2023/08/26 00:55:41;;;;;;;1.33;1.30;;;;;;;26.51;71.55;99282.28;5111536;28;20194;-77
2023/08/26 00:58:08;;;;;;;2.20;1.13;;;;;;;26.48;71.53;99286.06;5111132;28;20696;-76
2023/08/26 01:00:36;;;;;;;1.07;1.07;;;;;;;26.46;71.28;99287.19;5111115;28;20696;-76
2023/08/26 01:03:05;;;;;;;1.77;1.30;;;;;;;26.41;71.56;99285.00;5111723;28;20279;-76
2023/08/26 01:05:31;;;;;;;1.10;1.10;;;;;;;26.38;71.46;99284.47;5111110;28;20230;-76
2023/08/26 01:08:02;;;;;;;1.70;1.60;;;;;;;26.40;71.93;99295.66;5111490;27;20870;-76
2023/08/26 01:10:41;;;;;;;1.77;1.67;;;;;;;26.32;72.34;99290.31;5111074;28;20194;-76
2023/08/26 01:13:12;;;;;;;1.53;1.43;;;;;;;26.18;72.75;99267.16;5111508;28;20190;-76
2023/08/26 01:15:42;;;;;;;4.03;1.63;;;;;;;26.26;72.87;99286.50;5111501;28;20186;-77
2023/08/26 01:18:13;;;;;;;1.63;1.53;;;;;;;26.24;72.55;99282.34;5111448;28;20271;-76
2023/08/26 01:20:41;;;;;;;1.70;1.60;;;;;;;26.22;73.00;99285.13;5111432;28;20236;-76
2023/08/26 01:23:16;;;;;;;1.10;1.10;;;;;;;26.22;73.55;99284.28;5111556;28;20199;-76
2023/08/26 01:25:44;;;;;;;1.60;1.50;;;;;;;26.18;73.14;99282.94;5111458;28;20194;-77
2023/08/26 01:28:11;;;;;;;1.70;1.30;;;;;;;26.16;72.71;99274.34;5111511;28;20243;-77
2023/08/26 01:30:38;;;;;;;1.70;1.60;;;;;;;26.17;72.45;99270.78;5111262;28;20203;-77
2023/08/26 01:33:12;;;;;;;1.77;1.67;;;;;;;26.08;73.29;99273.28;5111563;28;20194;-76
2023/08/26 01:35:42;;;;;;;1.80;1.70;;;;;;;26.04;73.73;99271.91;5111164;28;20199;-77
2023/08/26 01:38:10;;;;;;;1.50;1.10;;;;;;;26.02;73.50;99275.66;5111260;28;20219;-77
2023/08/26 01:40:40;;;;;;;2.27;2.07;;;;;;;25.98;74.11;99277.75;5111553;28;20203;-76
2023/08/26 01:43:09;;;;;;;1.70;1.67;;;;;;;25.94;73.91;99281.66;5105791;28;20669;-77
2023/08/26 01:45:35;;;;;;;2.10;2.00;;;;;;;25.92;73.93;99270.47;5111163;28;20202;-77
2023/08/26 01:48:02;;;;;;;1.23;1.23;;;;;;;25.93;73.83;99277.38;5111444;28;20198;-76
2023/08/26 01:50:29;;;;;;;9.67;3.30;;;;;;;25.93;73.29;99276.56;5110881;28;20202;-77
2023/08/26 01:52:56;;;;;;;1.93;1.83;;;;;;;25.93;73.74;99273.91;5111765;28;20252;-77
2023/08/26 01:55:22;;;;;;;1.70;1.60;;;;;;;25.94;74.10;99271.16;5111255;28;20244;-76
2023/08/26 01:57:49;;;;;;;5.67;1.73;;;;;;;25.92;75.05;99270.47;5110813;28;20299;-77
2023/08/26 02:00:18;;;;;;;1.80;1.73;;;;;;;25.88;74.34;99270.91;5110910;28;20194;-77
2023/08/26 02:02:45;;;;;;;1.00;1.00;;;;;;;25.88;74.24;99266.47;5113879;28;20205;-77
2023/08/26 02:05:11;;;;;;;3.13;1.67;;;;;;;25.88;75.19;99270.91;5114909;27;20741;-76
2023/08/26 02:07:38;;;;;;;1.83;1.70;;;;;;;25.85;74.90;99277.28;5114816;28;20263;-77
2023/08/26 02:10:06;;;;;;;1.50;1.40;;;;;;;25.78;75.12;99270.97;5114873;28;20248;-76
2023/08/26 02:12:33;;;;;;;1.03;1.03;;;;;;;25.70;75.54;99268.22;5114623;28;20223;-77
2023/08/26 02:15:01;;;;;;;1.30;1.30;;;;;;;25.69;75.84;99277.06;5114591;28;20250;-76
2023/08/26 02:17:29;;;;;;;1.20;1.20;;;;;;;25.68;75.52;99275.44;5114523;28;20281;-77
2023/08/26 02:19:55;;;;;;;3.93;1.77;;;;;;;25.69;75.50;99271.81;5114182;28;20195;-77
2023/08/26 02:22:22;;;;;;;1.43;1.40;;;;;;;25.71;76.83;99272.53;5114520;28;20680;-76
2023/08/26 02:24:49;;;;;;;1.47;1.27;;;;;;;25.71;76.75;99269.88;5114336;28;20195;-77
2023/08/26 02:27:16;;;;;;;0.80;0.80;;;;;;;25.73;76.68;99261.84;5114416;28;20698;-77
2023/08/26 02:29:42;;;;;;;1.53;1.40;;;;;;;25.74;76.79;99264.34;5114251;28;20259;-77
2023/08/26 02:32:09;;;;;;;1.40;1.40;;;;;;;25.69;77.35;99256.06;5114173;28;20661;-77
2023/08/26 02:34:38;;;;;;;1.47;1.37;;;;;;;25.63;76.87;99248.78;5114631;28;20199;-77
2023/08/26 02:37:05;;;;;;;2.30;1.50;;;;;;;25.62;76.76;99255.00;5111787;28;20546;-77
2023/08/26 02:39:31;;;;;;;2.10;1.97;;;;;;;25.55;75.96;99262.63;5114273;28;20222;-76
2023/08/26 02:41:58;;;;;;;1.43;1.33;;;;;;;25.52;75.78;99275.22;5113849;28;20294;-77
2023/08/26 02:44:25;;;;;;;2.23;1.17;;;;;;;25.44;75.29;99270.66;5114039;28;20713;-77
2023/08/26 02:46:51;;;;;;;1.10;1.10;;;;;;;25.40;74.65;99276.31;5113666;28;20187;-77
2023/08/26 02:49:18;;;;;;;1.33;1.33;;;;;;;25.39;75.40;99275.50;5113983;28;20623;-77
2023/08/26 02:51:46;;;;;;;1.63;1.53;;;;;;;25.37;75.85;99266.09;5113701;28;20198;-77
2023/08/26 02:54:13;;;;;;;1.20;1.20;;;;;;;25.38;74.91;99267.75;5113845;28;20190;-77
2023/08/26 02:56:40;;;;;;;5.00;1.70;;;;;;;25.34;75.29;99277.72;5114073;27;20700;-77
2023/08/26 02:59:06;;;;;;;1.27;1.20;;;;;;;25.31;75.00;99277.16;5113427;28;20218;-77
2023/08/26 03:01:33;;;;;;;7.83;1.67;;;;;;;25.23;75.67;99275.28;5113750;28;20605;-77
2023/08/26 03:04:00;;;;;;;4.70;1.77;;;;;;;25.23;75.71;99279.69;5113261;28;20187;-76
2023/08/26 03:06:28;;;;;;;1.87;1.77;;;;;;;25.23;75.55;99279.69;5113817;27;20210;-77
2023/08/26 03:08:56;;;;;;;2.50;1.50;;;;;;;25.24;76.05;99276.91;5113372;28;20190;-77
2023/08/26 03:11:23;;;;;;;1.57;1.47;;;;;;;25.21;77.51;99271.94;5113687;28;20191;-77
2023/08/26 03:13:51;;;;;;;1.50;1.40;;;;;;;25.21;77.23;99279.81;5113493;28;20683;-77
2023/08/26 03:16:18;;;;;;;1.73;1.67;;;;;;;25.21;77.07;99281.63;5113551;28;20260;-77
2023/08/26 03:18:44;;;;;;;1.70;1.60;;;;;;;25.15;78.33;99271.69;5113406;28;20211;-77
2023/08/26 03:21:11;;;;;;;2.07;1.93;;;;;;;25.10;77.75;99289.66;5113150;28;20249;-77
2023/08/26 03:23:38;;;;;;;2.10;1.40;;;;;;;25.10;77.86;99284.41;5113425;28;20672;-76
2023/08/26 03:26:06;;;;;;;2.37;2.17;;;;;;;25.07;79.55;99291.56;5113049;28;20186;-77
2023/08/26 03:28:33;;;;;;;1.53;1.47;;;;;;;25.05;80.18;99288.28;5113233;28;20190;-77
2023/08/26 03:31:04;;;;;;;1.53;1.43;;;;;;;24.99;80.19;99293.25;5112972;28;20195;-76
2023/08/26 03:33:31;;;;;;;1.50;1.40;;;;;;;24.95;81.48;99297.94;5113343;28;20207;-77
2023/08/26 03:35:58;;;;;;;2.30;1.70;;;;;;;24.84;82.78;99299.91;5113145;28;20193;-77
2023/08/26 03:38:25;;;;;;;1.63;1.53;;;;;;;24.76;82.72;99291.84;5112988;28;20222;-76
2023/08/26 03:40:51;;;;;;;1.60;1.50;;;;;;;24.84;83.89;99305.16;5112869;28;20194;-76
2023/08/26 03:43:19;;;;;;;1.93;1.83;;;;;;;24.72;85.10;99301.78;5112515;28;20251;-77
2023/08/26 03:45:46;;;;;;;2.13;1.93;;;;;;;24.74;85.05;99307.75;5112882;28;20248;-77
2023/08/26 03:48:13;;;;;;;1.77;1.67;;;;;;;24.78;84.80;99306.47;5112710;28;20227;-77
2023/08/26 03:50:49;;;;;;;1.87;1.77;;;;;;;24.77;85.90;99304.84;5112736;28;20669;-77
2023/08/26 03:53:16;;;;;;;2.83;1.83;;;;;;;24.71;86.89;99300.16;5112899;27;20607;-77
2023/08/26 03:55:42;;;;;;;2.00;1.90;;;;;;;24.69;87.17;99304.69;5112541;28;20194;-77
2023/08/26 03:58:09;;;;;;;1.60;1.50;;;;;;;24.71;86.29;99297.53;5112571;28;20268;-77
2023/08/26 04:00:38;;;;;;;1.90;1.80;;;;;;;24.72;86.69;99299.16;5112601;28;20689;-77
2023/08/26 04:03:05;;;;;;;1.70;1.60;;;;;;;24.74;86.07;99309.53;5112224;28;20256;-77
2023/08/26 04:05:32;;;;;;;1.90;1.80;;;;;;;24.75;85.84;99303.31;5112274;28;20769;-76
2023/08/26 04:07:59;;;;;;;1.57;1.47;;;;;;;24.72;86.09;99304.41;5112346;28;20801;-77
2023/08/26 04:10:26;;;;;;;2.67;1.60;;;;;;;24.66;87.11;99312.81;5111987;28;20191;-77
2023/08/26 04:12:53;;;;;;;1.57;1.47;;;;;;;24.60;87.37;99316.00;5112592;28;20251;-76
2023/08/26 04:15:19;;;;;;;1.73;1.63;;;;;;;24.47;87.33;99307.56;5112172;28;20194;-77
2023/08/26 04:17:47;;;;;;;1.83;1.47;;;;;;;24.47;87.12;99297.91;5112323;28;20260;-77
2023/08/26 04:20:14;;;;;;;1.60;1.50;;;;;;;24.56;86.39;99304.13;5112154;27;20218;-77
2023/08/26 04:22:41;;;;;;;1.90;1.80;;;;;;;24.53;86.38;99313.09;5112074;28;20672;-76
2023/08/26 04:25:08;;;;;;;5.13;1.67;;;;;;;24.56;86.68;99312.00;5111765;28;20198;-78
2023/08/26 04:27:35;;;;;;;3.90;1.60;;;;;;;24.45;86.66;99293.78;5112115;28;20191;-77
2023/08/26 04:30:02;;;;;;;1.70;1.60;;;;;;;24.62;86.98;99316.69;5112309;28;20191;-76
2023/08/26 04:32:29;;;;;;;1.97;1.50;;;;;;;24.66;86.68;99318.06;5111989;28;20259;-77
2023/08/26 04:34:58;;;;;;;1.20;1.20;;;;;;;24.69;84.99;99315.16;5106595;28;20275;-77
2023/08/26 04:37:24;;;;;;;1.80;1.70;;;;;;;24.73;84.74;99324.44;5111649;28;20226;-77
2023/08/26 04:39:51;;;;;;;2.10;2.00;;;;;;;24.82;85.02;99325.41;5111944;28;20241;-77
2023/08/26 04:42:18;;;;;;;2.10;2.00;;;;;;;24.94;84.54;99327.75;5111946;28;20199;-77
2023/08/26 04:44:46;;;;;;;2.20;2.10;;;;;;;25.08;85.36;99329.97;5111502;28;20201;-77
2023/08/26 04:47:13;;;;;;;1.97;1.87;;;;;;;25.22;85.00;99336.59;5111595;28;20203;-77
2023/08/26 04:49:40;;;;;;;2.20;1.90;;;;;;;25.33;84.60;99338.25;5111604;28;20195;-77
2023/08/26 04:52:08;;;;;;;3.20;2.67;;;;;;;25.45;84.60;99342.34;5111791;28;20189;-77
2023/08/26 04:54:34;;;;;;;2.77;2.57;;;;;;;25.58;84.92;99345.53;5111544;28;20263;-77
2023/08/26 04:57:02;;;;;;;2.70;2.50;;;;;;;25.69;85.09;99337.47;5111951;28;20281;-77
2023/08/26 04:59:29;;;;;;;3.13;2.67;;;;;;;25.81;85.25;99332.88;5111450;28;20279;-77
2023/08/26 05:01:55;;;;;;;2.73;2.53;;;;;;;25.96;83.65;99334.88;5111598;28;20251;-77
2023/08/26 05:04:22;;;;;;;4.90;3.20;;;;;;;26.12;83.74;99334.25;5111195;28;20259;-77
2023/08/26 05:06:49;;;;;;;2.23;2.13;;;;;;;26.24;82.91;99334.91;5111727;28;20561;-77
2023/08/26 05:09:17;;;;;;;2.33;2.10;;;;;;;26.32;82.40;99333.22;5111007;28;20199;-77
2023/08/26 05:11:44;;;;;;;3.43;2.33;;;;;;;26.45;81.70;99332.84;5111079;28;20263;-77
2023/08/26 05:14:11;;;;;;;2.97;2.77;;;;;;;26.58;82.55;99338.56;5111612;28;21055;-77
2023/08/26 05:16:37;;;;;;;9.93;3.37;;;;;;;26.76;82.44;99326.25;5111361;28;20248;-77
2023/08/26 05:19:04;;;;;;;3.03;2.53;;;;;;;26.96;80.78;99334.84;5111420;28;20732;-77
2023/08/26 05:21:31;;;;;;;6.03;3.40;;;;;;;27.11;79.66;99335.94;5111422;28;20206;-77
2023/08/26 05:23:58;;;;;;;3.33;3.13;;;;;;;27.30;80.42;99334.97;5111639;28;20194;-77
2023/08/26 05:26:26;;;;;;;2.90;2.80;;;;;;;27.51;77.81;99335.44;5111191;28;20610;-78
2023/08/26 05:28:53;;;;;;;2.27;2.17;;;;;;;27.66;75.76;99336.50;5109134;28;20664;-77
2023/08/26 05:31:20;;;;;;;3.13;2.47;;;;;;;27.83;72.45;99343.53;5111352;27;20207;-77
2023/08/26 05:33:46;;;;;;;1.83;1.73;;;;;;;27.96;71.28;99337.81;5110999;28;20677;-77
2023/08/26 05:36:13;;;;;;;2.47;2.37;;;;;;;28.04;72.95;99333.44;5112112;28;20550;-77
2023/08/26 05:38:40;;;;;;;2.73;2.50;;;;;;;28.22;70.38;99345.69;5114943;28;20696;-77
2023/08/26 05:41:07;;;;;;;2.43;2.13;;;;;;;28.32;69.56;99335.84;5115326;28;20202;-77
2023/08/26 05:43:35;;;;;;;2.60;2.37;;;;;;;28.36;69.58;99334.56;5114979;28;20741;-77
2023/08/26 05:46:01;;;;;;;2.73;2.53;;;;;;;28.48;68.90;99338.53;5115054;28;20194;-77
2023/08/26 05:48:28;;;;;;;2.10;2.00;;;;;;;28.53;67.75;99341.53;5115328;27;20202;-77
2023/08/26 05:50:58;;;;;;;2.77;1.93;;;;;;;28.72;67.24;99345.72;5114766;28;20244;-77
2023/08/26 05:53:25;;;;;;;5.20;2.47;;;;;;;28.88;65.82;99341.28;5114999;28;20223;-77
2023/08/26 05:55:52;;;;;;;3.00;2.63;;;;;;;28.98;65.86;99335.84;5114844;28;20662;-77
2023/08/26 05:58:19;;;;;;;2.63;2.30;;;;;;;29.11;65.42;99339.59;5115031;28;20202;-77
2023/08/26 06:00:48;;;;;;;1.80;1.70;;;;;;;29.28;67.63;99342.28;5114451;28;20259;-78
2023/08/26 06:03:15;;;;;;;5.05;2.03;;;;;;;29.43;64.70;99333.53;5115149;28;20618;-78
2023/08/26 06:05:42;;;;;;;2.95;2.15;;;;;;;29.59;65.71;99335.31;5114614;28;20227;-78
2023/08/26 06:08:09;;;;;;;2.87;2.67;;;;;;;29.66;63.92;99341.56;5115176;28;20543;-77
2023/08/26 06:10:35;;;;;;;2.97;2.78;;;;;;;29.79;64.93;99349.75;5114699;27;20198;-77
2023/08/26 06:13:02;;;;;;;1.75;1.60;;;;;;;30.00;62.96;99350.06;5135140;27;20194;-77
2023/08/26 06:15:29;;;;;;;2.45;2.25;;;;;;;30.14;61.53;99352.00;5135158;27;20275;-78
2023/08/26 06:17:59;;;;;;;3.03;2.83;;;;;;;30.27;61.69;99345.31;5135148;27;20259;-78
2023/08/26 06:20:26;;;;;;;2.75;2.55;;;;;;;30.43;64.04;99353.22;5134895;27;20214;-77
2023/08/26 06:22:53;;;;;;;4.30;3.15;;;;;;;30.51;60.04;99353.97;5134792;27;20675;-77
2023/08/26 06:25:20;;;;;;;2.15;1.98;;;;;;;30.59;60.59;99351.28;5135255;27;20185;-77
2023/08/26 06:27:46;;;;;;;2.47;2.28;;;;;;;30.74;58.50;99354.00;5134697;27;20190;-78
2023/08/26 06:30:13;;;;;;;2.33;2.22;;;;;;;30.91;57.26;99355.53;5122221;27;20256;-77
2023/08/26 06:32:40;;;;;;;2.63;2.42;;;;;;;30.94;58.75;99355.19;5114299;28;20239;-78
2023/08/26 06:35:09;;;;;;;2.50;2.30;;;;;;;31.05;56.82;99353.97;5114086;28;20581;-77
2023/08/26 06:37:36;;;;;;;3.30;2.72;;;;;;;31.13;58.15;99354.72;5114122;28;20190;-78
2023/08/26 06:40:03;;;;;;;2.83;2.67;;;;;;;31.29;57.32;99361.72;5113790;28;20267;-78
2023/08/26 06:42:29;;;;;;;2.72;2.55;;;;;;;31.45;56.95;99368.69;5114008;28;20271;-78
2023/08/26 06:44:58;;;;;;;3.90;3.22;;;;;;;31.54;55.74;99367.63;5113773;27;20248;-77
2023/08/26 06:47:25;;;;;;;2.70;2.50;;;;;;;31.66;56.18;99363.53;5113626;28;20256;-78
2023/08/26 06:49:51;;;;;;;2.15;2.05;;;;;;;31.75;55.69;99365.09;5113692;28;20561;-78
2023/08/26 06:52:19;;;;;;;3.05;2.90;;;;;;;31.79;54.76;99371.69;5113869;28;20194;-78
2023/08/26 06:54:46;;;;;;;2.70;2.60;;;;;;;31.87;53.44;99379.53;5113849;28;20240;-78
2023/08/26 06:57:13;;;;;;;2.70;2.50;;;;;;;31.89;53.07;99369.56;5113478;28;20199;-77
2023/08/26 06:59:39;;;;;;;2.28;2.00;;;;;;;31.91;52.93;99370.22;5114102;28;20218;-78
2023/08/26 07:02:06;;;;;;;2.60;2.40;;;;;;;32.10;55.30;99375.00;5113558;28;20187;-78
2023/08/26 07:04:33;;;;;;;2.40;2.20;;;;;;;32.14;54.11;99370.97;5113613;28;20233;-78
2023/08/26 07:06:59;;;;;;;2.58;2.38;;;;;;;32.17;54.34;99361.81;5113362;28;20194;-78
2023/08/26 07:09:28;;;;;;;2.97;2.50;;;;;;;32.28;52.74;99368.50;5113432;28;20203;-78
2023/08/26 07:11:54;;;;;;;5.25;2.53;;;;;;;32.39;51.48;99373.28;5113595;28;20194;-78
2023/08/26 07:14:21;;;;;;;2.65;2.17;;;;;;;32.46;52.16;99374.22;5110984;28;20262;-78
2023/08/26 07:16:48;;;;;;;2.33;2.13;;;;;;;32.66;51.79;99369.97;5113335;28;20195;-78
2023/08/26 07:19:14;;;;;;;2.17;2.08;;;;;;;32.82;50.87;99369.72;5112345;28;20581;-78
2023/08/26 07:21:41;;;;;;;2.80;2.60;;;;;;;32.90;50.17;99372.25;5113328;28;20194;-79
2023/08/26 07:24:09;;;;;;;4.57;3.70;;;;;;;32.86;50.06;99367.53;5112961;28;20267;-78
2023/08/26 07:26:37;;;;;;;3.17;2.88;;;;;;;32.95;51.82;99369.88;5113341;28;20733;-78
2023/08/26 07:29:04;;;;;;;2.67;2.47;;;;;;;33.12;52.03;99360.63;5113284;28;20249;-78
2023/08/26 07:31:32;;;;;;;2.72;2.17;;;;;;;33.22;51.05;99361.13;5123497;27;20625;-78
2023/08/26 07:34:00;;;;;;;2.58;2.33;;;;;;;33.54;52.20;99366.91;5133670;27;20255;-78
2023/08/26 07:36:26;;;;;;;3.00;2.78;;;;;;;33.70;48.98;99363.97;5133607;27;20239;-78
2023/08/26 07:38:53;;;;;;;2.47;2.25;;;;;;;33.75;48.35;99359.72;5133847;27;20198;-75
2023/08/26 07:41:20;;;;;;;3.65;2.45;;;;;;;33.64;47.19;99360.25;5133341;27;20262;-75
2023/08/26 07:43:48;;;;;;;2.30;2.10;;;;;;;33.28;48.83;99363.00;5133639;27;20618;-76
2023/08/26 07:46:18;;;;;;;2.85;2.58;;;;;;;33.41;49.45;99358.84;5133298;27;20816;-75
2023/08/26 07:48:45;;;;;;;2.42;2.25;;;;;;;33.37;49.33;99363.72;5133356;27;20193;-76
2023/08/26 07:51:12;;;;;;;2.00;1.90;;;;;;;33.37;50.50;99365.53;5133005;27;20549;-76
2023/08/26 07:53:38;;;;;;;2.20;2.10;;;;;;;33.60;49.87;99355.50;5133109;27;20201;-76
2023/08/26 07:56:05;;;;;;;3.30;2.58;;;;;;;33.64;51.34;99359.41;5133160;27;20250;-76
2023/08/26 07:58:32;;;;;;;3.10;2.80;;;;;;;33.86;49.90;99358.34;5118365;27;20199;-76
2023/08/26 08:01:00;;;;;;;2.38;2.22;;;;;;;34.06;49.41;99353.91;5111898;28;20218;-76
2023/08/26 08:03:27;;;;;;;2.63;2.42;;;;;;;33.98;48.13;99345.28;5112264;28;20195;-75
2023/08/26 08:05:54;;;;;;;2.58;2.47;;;;;;;33.80;48.71;99353.78;5112494;28;20219;-76
2023/08/26 08:08:20;;;;;;;2.38;2.22;;;;;;;33.87;47.80;99351.97;5112119;28;20187;-76
2023/08/26 08:10:49;;;;;;;3.10;2.70;;;;;;;33.88;46.72;99344.84;5112367;28;20546;-77
2023/08/26 08:13:16;;;;;;;3.28;3.08;;;;;;;34.12;48.79;99337.19;5112541;28;20198;-76
2023/08/26 08:15:43;;;;;;;2.70;2.50;;;;;;;34.12;47.82;99336.41;5112214;28;20194;-77
2023/08/26 08:18:11;;;;;;;2.80;2.60;;;;;;;34.11;46.90;99335.56;5112321;28;20673;-77
2023/08/26 08:20:38;;;;;;;3.67;2.25;;;;;;;34.23;47.04;99328.66;5112144;28;20215;-76
2023/08/26 08:23:05;;;;;;;4.85;2.60;;;;;;;34.09;47.23;99332.22;5112206;28;20240;-76
2023/08/26 08:25:32;;;;;;;2.75;2.47;;;;;;;34.32;50.11;99334.59;5112045;28;20286;-76
2023/08/26 08:28:01;;;;;;;3.10;2.80;;;;;;;34.54;46.76;99335.31;5112266;28;20642;-76
2023/08/26 08:30:28;;;;;;;2.70;2.50;;;;;;;34.73;47.44;99331.88;5111816;28;20281;-76
2023/08/26 08:32:55;;;;;;;3.25;2.67;;;;;;;34.84;46.15;99333.94;5111894;28;20195;-77
2023/08/26 08:35:23;;;;;;;2.45;2.30;;;;;;;35.01;47.30;99332.50;5112113;28;20248;-75
2023/08/26 08:37:50;;;;;;;2.42;2.33;;;;;;;35.17;47.55;99334.81;5112212;28;20187;-76
2023/08/26 08:40:17;;;;;;;2.58;2.40;;;;;;;35.32;46.13;99331.91;5112110;28;20218;-76
2023/08/26 08:42:44;;;;;;;3.88;2.45;;;;;;;35.38;47.77;99332.94;5111405;28;20198;-77
2023/08/26 08:45:12;;;;;;;4.20;2.22;;;;;;;35.41;45.41;99329.88;5112022;28;20191;-76
2023/08/26 08:47:39;;;;;;;4.30;2.22;;;;;;;35.45;44.66;99333.72;5111705;28;20647;-77
2023/08/26 08:50:08;;;;;;;2.80;2.60;;;;;;;35.45;46.03;99323.06;5111606;28;20240;-77
2023/08/26 08:52:36;;;;;;;3.17;2.88;;;;;;;35.60;47.50;99329.03;5111459;28;20255;-76
2023/08/26 08:55:05;;;;;;;2.70;2.50;;;;;;;35.61;44.88;99318.16;5111804;28;20558;-77
2023/08/26 08:57:35;;;;;;;2.80;2.70;;;;;;;35.72;44.89;99319.34;5111557;28;20202;-76
2023/08/26 09:00:03;;;;;;;2.85;2.67;;;;;;;35.86;45.92;99315.63;5111514;28;20218;-76
2023/08/26 09:02:32;;;;;;;2.80;2.63;;;;;;;35.92;43.65;99308.63;5111411;28;20191;-76
2023/08/26 09:05:00;;;;;;;2.75;2.55;;;;;;;35.94;45.67;99310.03;5111311;28;20693;-76
2023/08/26 09:07:28;;;;;;;2.92;2.35;;;;;;;35.99;44.76;99304.91;5111182;28;20199;-77
2023/08/26 09:09:57;;;;;;;2.72;2.63;;;;;;;35.97;43.81;99304.28;5111518;28;20252;-76
2023/08/26 09:12:24;;;;;;;3.35;2.42;;;;;;;35.77;43.84;99299.00;5115917;28;20285;-76
2023/08/26 09:14:53;;;;;;;3.08;2.88;;;;;;;35.86;42.71;99304.13;5115386;28;20255;-76
2023/08/26 09:17:21;;;;;;;2.15;2.05;;;;;;;35.83;43.25;99305.38;5115835;28;20252;-76
2023/08/26 09:19:55;;;;;;;2.58;2.38;;;;;;;35.40;43.65;99293.56;5115680;28;20222;-75
2023/08/26 09:22:25;;;;;;;2.30;2.17;;;;;;;35.47;43.93;99287.19;5115031;27;20190;-76
2023/08/26 09:24:56;;;;;;;2.65;2.20;;;;;;;35.44;42.69;99292.13;5115128;28;20247;-76
2023/08/26 09:27:23;;;;;;;2.42;2.25;;;;;;;35.52;43.43;99281.22;5115862;28;20697;-76
2023/08/26 09:29:51;;;;;;;2.78;2.28;;;;;;;35.53;42.08;99282.84;5115477;28;20199;-75
2023/08/26 09:32:32;;;;;;;2.67;2.45;;;;;;;35.43;42.33;99282.47;5135900;27;20194;-75
2023/08/26 09:35:09;;;;;;;1.73;1.63;;;;;;;35.46;43.75;99277.53;5135731;27;20221;-76
2023/08/26 09:37:36;;;;;;;3.13;2.83;;;;;;;35.45;42.79;99285.72;5136059;27;20197;-77
2023/08/26 09:40:05;;;;;;;2.50;2.38;;;;;;;35.65;43.61;99283.88;5136034;27;20214;-76
2023/08/26 09:42:32;;;;;;;3.95;2.00;;;;;;;35.66;42.09;99282.84;5136177;27;20194;-76
2023/08/26 09:44:59;;;;;;;2.72;2.53;;;;;;;35.76;42.04;99275.22;5135404;27;20190;-75
2023/08/26 09:47:28;;;;;;;2.42;2.33;;;;;;;35.74;42.30;99275.44;5135735;27;20190;-76
2023/08/26 09:49:55;;;;;;;3.10;2.05;;;;;;;36.06;41.64;99278.22;5127578;27;20191;-76
2023/08/26 09:52:22;;;;;;;2.30;2.10;;;;;;;36.05;41.33;99268.53;5115450;27;20263;-77
2023/08/26 09:54:49;;;;;;;2.40;2.30;;;;;;;36.05;42.37;99261.34;5114795;28;20632;-77
2023/08/26 09:57:18;;;;;;;2.22;2.13;;;;;;;36.00;42.08;99274.50;5114943;28;20289;-75
2023/08/26 09:59:44;;;;;;;2.50;2.40;;;;;;;36.00;40.92;99261.16;5114819;28;20193;-77
2023/08/26 10:02:20;;;;;;;2.67;2.42;;;;;;;36.23;41.28;99266.00;5114881;28;20278;-76
2023/08/26 10:04:49;;;;;;;2.35;2.25;;;;;;;36.40;40.65;99272.47;5114531;28;20550;-75
2023/08/26 10:07:15;;;;;;;3.13;2.22;;;;;;;36.51;40.74;99266.44;5115057;28;20194;-76
2023/08/26 10:09:47;;;;;;;2.50;2.30;;;;;;;36.46;40.09;99268.09;5114788;28;20669;-76
2023/08/26 10:12:21;;;;;;;2.35;2.17;;;;;;;36.40;40.03;99263.63;5135293;27;20267;-76
2023/08/26 10:14:51;;;;;;;1.92;1.83;;;;;;;36.13;39.20;99258.44;5134992;27;20191;-76
2023/08/26 10:17:21;;;;;;;3.13;1.83;;;;;;;35.88;41.19;99249.53;5135059;27;20206;-79
2023/08/26 10:19:48;;;;;;;2.15;2.05;;;;;;;35.93;39.90;99249.69;5135093;27;20190;-78
2023/08/26 10:22:15;;;;;;;2.40;1.70;;;;;;;35.71;41.72;99240.34;5134495;27;20198;-79
2023/08/26 10:24:44;;;;;;;2.95;2.55;;;;;;;35.78;39.72;99254.50;5135229;27;20271;-79
2023/08/26 10:27:11;;;;;;;2.42;1.98;;;;;;;35.87;39.62;99245.22;5114677;27;20202;-78
2023/08/26 10:29:40;;;;;;;2.95;2.08;;;;;;;35.81;39.40;99243.38;5113565;28;20195;-78
2023/08/26 10:32:17;;;;;;;1.90;1.80;;;;;;;35.93;40.84;99236.34;5114203;28;20260;-77
2023/08/26 10:34:53;;;;;;;2.35;2.15;;;;;;;36.07;41.00;99240.63;5114226;28;20197;-77
2023/08/26 10:37:20;;;;;;;2.50;2.40;;;;;;;36.27;41.00;99244.00;5114242;28;20286;-76
2023/08/26 10:39:47;;;;;;;2.17;1.95;;;;;;;36.29;40.24;99241.94;5113869;28;20677;-75
2023/08/26 10:42:16;;;;;;;2.13;2.00;;;;;;;36.15;41.65;99235.06;5113905;28;20406;-76
2023/08/26 10:44:47;;;;;;;2.20;2.10;;;;;;;36.08;41.26;99228.94;5114081;28;20195;-77
2023/08/26 10:47:34;;;;;;;2.25;2.15;;;;;;;36.07;41.38;99227.28;5120806;27;20251;-77
2023/08/26 10:50:26;;;;;;;2.20;2.00;;;;;;;36.08;39.63;99220.09;5134498;27;20217;-75
2023/08/26 10:52:56;;;;;;;2.17;2.08;;;;;;;35.88;40.16;99219.34;5099297;28;20191;-76
2023/08/26 10:55:25;;;;;;;2.40;2.30;;;;;;;35.86;41.27;99216.91;5114038;28;20624;-77
2023/08/26 10:58:03;;;;;;;4.85;2.30;;;;;;;35.99;40.35;99214.16;5113782;28;20195;-77
2023/08/26 11:00:31;;;;;;;2.03;1.92;;;;;;;36.08;42.39;99220.91;5113352;28;20595;-75
2023/08/26 11:02:58;;;;;;;2.22;2.00;;;;;;;36.12;41.09;99211.47;5113604;28;20551;-77
2023/08/26 11:05:25;;;;;;;2.45;2.28;;;;;;;36.22;40.35;99209.09;5113771;28;20222;-76
2023/08/26 11:07:52;;;;;;;1.65;1.65;;;;;;;36.32;41.45;99213.97;5113485;28;20199;-75
2023/08/26 11:10:28;;;;;;;3.03;2.17;;;;;;;36.28;39.22;99212.78;5113664;27;20267;-75
2023/08/26 11:12:55;;;;;;;2.53;2.33;;;;;;;36.09;40.35;99209.19;5113506;28;20210;-76
2023/08/26 11:15:22;;;;;;;4.47;1.92;;;;;;;36.05;39.98;99204.47;5113365;28;20665;-76
2023/08/26 11:17:51;;;;;;;3.05;2.38;;;;;;;36.23;40.86;99193.91;5113301;28;20273;-77
2023/08/26 11:20:19;;;;;;;1.90;1.80;;;;;;;36.32;40.62;99195.28;5113255;28;20726;-77
2023/08/26 11:22:45;;;;;;;1.88;1.77;;;;;;;36.41;39.95;99195.84;5113128;28;20287;-76
2023/08/26 11:25:16;;;;;;;2.10;1.90;;;;;;;36.59;41.14;99198.59;5113262;27;20190;-77
2023/08/26 11:27:43;;;;;;;5.43;2.53;;;;;;;36.36;38.83;99187.66;5113050;28;20199;-76
2023/08/26 11:30:11;;;;;;;2.47;2.38;;;;;;;36.37;40.76;99194.63;5113087;28;20191;-77
2023/08/26 11:32:39;;;;;;;2.15;2.05;;;;;;;36.53;40.15;99191.44;5113067;28;20194;-77
2023/08/26 11:35:09;;;;;;;3.45;2.05;;;;;;;36.38;39.47;99190.94;5111992;28;20637;-76
2023/08/26 11:37:37;;;;;;;2.10;2.00;;;;;;;36.36;39.75;99183.13;5113132;28;20198;-76